Tapolca, Hungary
Current Conditions -  °F | °C
As of 9:15 AM on Saturday 29 Nov 2014 (Local Time) from LHSM Reporting Station
Moderate Fog Moderate Fog  
Wind Chill: 32°   Ceiling: 400
Heat Index: 36°   Visibility: 0.56mi
Dew Point: 36°   Wind: 5mph
Humidity: 100%   Direction: 70°ENE
Pressure: 30.12"   Gusts: NA
Location:  46.89°N, 17.44°E
Report Text: LHSM 290715Z 07004KT 0900 FG OVC004 02/02 Q1020 BECMG 1500 BR
Loading
Personal Weather Stations






























Interactive Weather Map New forecast layout! Learn more

10-Day Weather Forecast

Advertisements
Track Severe Weather on mobile